createdAt,value
2022-11-26T00:02:23.129Z,7.72
2022-11-26T00:04:52.382Z,7.85
2022-11-26T00:07:22.497Z,7.70
2022-11-26T00:09:50.906Z,8.05
2022-11-26T00:12:28.506Z,7.72
2022-11-26T00:14:56.177Z,7.63
2022-11-26T00:17:24.041Z,7.88
2022-11-26T00:19:51.659Z,7.68
2022-11-26T00:22:29.460Z,7.20
2022-11-26T00:24:57.366Z,7.85
2022-11-26T00:27:26.766Z,7.93
2022-11-26T00:29:54.816Z,7.80
2022-11-26T00:32:24.490Z,7.85
2022-11-26T00:34:52.745Z,7.40
2022-11-26T00:37:24.653Z,6.93
2022-11-26T00:39:52.381Z,6.95
2022-11-26T00:42:20.207Z,7.50
2022-11-26T00:44:47.733Z,7.03
2022-11-26T00:47:15.316Z,6.60
2022-11-26T00:49:42.912Z,7.38
2022-11-26T00:52:34.039Z,6.82
2022-11-26T00:55:06.288Z,7.78
2022-11-26T00:57:33.899Z,7.25
2022-11-26T01:00:01.557Z,7.65
2022-11-26T01:02:29.266Z,7.32
2022-11-26T01:04:56.903Z,6.78
2022-11-26T01:07:24.662Z,7.05
2022-11-26T01:09:52.249Z,7.05
2022-11-26T01:12:19.870Z,7.30
2022-11-26T01:14:47.463Z,7.32
2022-11-26T01:17:15.113Z,6.85
2022-11-26T01:19:42.730Z,7.07
2022-11-26T01:22:21.490Z,7.78
2022-11-26T01:24:49.753Z,7.45
2022-11-26T01:27:20.594Z,6.60
2022-11-26T01:29:48.323Z,7.70
2022-11-26T01:32:15.973Z,7.68
2022-11-26T01:34:43.524Z,6.85
2022-11-26T01:37:13.228Z,6.95
2022-11-26T01:39:41.103Z,7.18
2022-11-26T01:42:28.887Z,7.13
2022-11-26T01:44:56.480Z,6.85
2022-11-26T01:47:29.910Z,7.15
2022-11-26T01:50:28.726Z,6.68
2022-11-26T01:53:03.386Z,6.93
2022-11-26T01:55:45.318Z,6.60
2022-11-26T01:58:15.980Z,7.55
2022-11-26T02:00:44.098Z,7.40
2022-11-26T02:03:12.007Z,6.57
2022-11-26T02:05:47.669Z,6.60
2022-11-26T02:08:16.013Z,6.43
2022-11-26T02:10:43.868Z,6.97
2022-11-26T02:13:11.790Z,6.63
2022-11-26T02:16:13.484Z,6.35
2022-11-26T02:18:44.925Z,7.03
2022-11-26T02:21:24.102Z,6.10
2022-11-26T02:24:29.493Z,7.25
2022-11-26T02:26:57.090Z,7.75
2022-11-26T02:29:46.682Z,6.50
2022-11-26T02:32:30.273Z,7.55
2022-11-26T02:35:02.778Z,7.40
2022-11-26T02:37:53.463Z,6.72
2022-11-26T02:40:21.277Z,7.47
2022-11-26T02:42:48.851Z,7.10
2022-11-26T02:45:22.715Z,6.72
2022-11-26T02:47:53.657Z,6.60
2022-11-26T02:50:27.851Z,7.43
2022-11-26T02:52:57.320Z,6.68
2022-11-26T02:55:28.873Z,6.80
2022-11-26T02:57:57.212Z,7.05
2022-11-26T03:00:24.889Z,6.85
2022-11-26T03:03:22.357Z,6.72
2022-11-26T03:05:54.755Z,7.03
2022-11-26T03:08:23.048Z,6.72
2022-11-26T03:10:50.660Z,6.28
2022-11-26T03:13:18.360Z,7.35
2022-11-26T03:15:46.022Z,6.82
2022-11-26T03:18:13.618Z,6.63
2022-11-26T03:20:41.239Z,7.72
2022-11-26T03:23:08.974Z,7.13
2022-11-26T03:25:36.639Z,6.75
2022-11-26T03:28:04.507Z,6.28
2022-11-26T03:30:32.259Z,7.28
2022-11-26T03:32:59.887Z,7.88
2022-11-26T03:35:27.455Z,7.28
2022-11-26T03:37:55.078Z,8.02
2022-11-26T03:40:22.654Z,7.78
2022-11-26T03:42:50.227Z,7.22
2022-11-26T03:45:17.882Z,6.45
2022-11-26T03:47:45.450Z,6.90
2022-11-26T03:50:13.232Z,7.28
2022-11-26T03:52:40.790Z,6.30
2022-11-26T03:55:09.396Z,6.15
2022-11-26T03:57:37.395Z,7.22
2022-11-26T04:00:08.793Z,7.20
2022-11-26T04:02:36.814Z,7.20
2022-11-26T04:05:04.881Z,7.10
2022-11-26T04:07:32.597Z,6.68
2022-11-26T04:10:00.315Z,6.15
2022-11-26T04:12:27.855Z,6.85
2022-11-26T04:14:55.405Z,6.38
2022-11-26T04:17:23.044Z,7.35
2022-11-26T04:19:50.665Z,7.38
2022-11-26T04:22:18.235Z,6.05
2022-11-26T04:24:45.746Z,6.75
2022-11-26T04:27:13.303Z,6.90
2022-11-26T04:29:40.883Z,7.15
2022-11-26T04:32:08.516Z,7.25
2022-11-26T04:34:36.346Z,6.95
2022-11-26T04:37:04.095Z,6.80
2022-11-26T04:39:31.819Z,6.70
2022-11-26T04:41:59.429Z,6.60
2022-11-26T04:44:27.053Z,6.50
2022-11-26T04:46:54.699Z,6.55
2022-11-26T04:49:22.402Z,7.00
2022-11-26T04:51:50.040Z,6.63
2022-11-26T04:54:17.592Z,7.05
2022-11-26T04:56:45.161Z,7.40
2022-11-26T04:59:12.726Z,7.72
2022-11-26T05:01:40.316Z,7.15
2022-11-26T05:04:07.939Z,6.85
2022-11-26T05:06:35.554Z,6.95
2022-11-26T05:09:03.412Z,7.82
2022-11-26T05:11:31.043Z,7.30
2022-11-26T05:13:58.612Z,7.32
2022-11-26T05:16:26.186Z,7.05
2022-11-26T05:18:53.807Z,6.95
2022-11-26T05:21:21.394Z,7.22
2022-11-26T05:23:48.983Z,6.70
2022-11-26T05:26:17.005Z,7.40
2022-11-26T05:28:44.543Z,7.78
2022-11-26T05:31:12.199Z,6.28
2022-11-26T05:33:39.832Z,7.70
2022-11-26T05:36:07.609Z,6.60
2022-11-26T05:38:35.728Z,6.63
2022-11-26T05:41:03.613Z,6.35
2022-11-26T05:43:31.468Z,6.57
2022-11-26T05:46:07.201Z,6.90
2022-11-26T05:48:34.860Z,6.78
2022-11-26T05:51:03.405Z,5.95
2022-11-26T05:53:31.050Z,7.00
2022-11-26T05:55:58.666Z,6.95
2022-11-26T05:58:26.400Z,6.40
2022-11-26T06:00:54.106Z,7.32
2022-11-26T06:03:21.851Z,6.63
2022-11-26T06:05:49.662Z,6.60
2022-11-26T06:08:17.236Z,6.22
2022-11-26T06:10:45.664Z,6.93
2022-11-26T06:13:13.827Z,6.90
2022-11-26T06:15:41.381Z,6.63
2022-11-26T06:18:08.949Z,7.05
2022-11-26T06:20:37.516Z,7.40
2022-11-26T06:23:05.386Z,7.45
2022-11-26T06:25:33.080Z,7.78
2022-11-26T06:28:00.623Z,8.05
2022-11-26T06:30:28.328Z,7.53
2022-11-26T06:32:55.846Z,8.15
2022-11-26T06:35:23.552Z,8.50
2022-11-26T06:37:51.173Z,7.95
2022-11-26T06:40:20.153Z,7.72
2022-11-26T06:42:51.709Z,8.15
2022-11-26T06:45:20.461Z,8.32
2022-11-26T06:47:49.293Z,8.27
2022-11-26T06:50:18.631Z,8.35
2022-11-26T06:52:46.627Z,8.90
2022-11-26T06:55:14.170Z,10.10
2022-11-26T06:57:41.739Z,9.77
2022-11-26T07:00:09.907Z,9.43
2022-11-26T07:02:38.330Z,8.93
2022-11-26T07:05:06.081Z,9.13
2022-11-26T07:07:36.104Z,10.85
2022-11-26T07:10:04.085Z,10.32
2022-11-26T07:12:31.726Z,10.13
2022-11-26T07:14:59.414Z,11.13
2022-11-26T07:17:28.952Z,10.75
2022-11-26T07:19:56.670Z,9.68
2022-11-26T07:22:24.262Z,10.80
2022-11-26T07:24:52.220Z,10.52
2022-11-26T07:27:20.881Z,10.40
2022-11-26T07:29:48.513Z,10.18
2022-11-26T07:32:16.055Z,10.30
2022-11-26T07:34:43.699Z,10.52
2022-11-26T07:37:11.322Z,11.35
2022-11-26T07:39:39.086Z,10.02
2022-11-26T07:42:06.663Z,9.65
2022-11-26T07:44:34.235Z,10.30
2022-11-26T07:47:03.669Z,10.60
2022-11-26T07:49:31.294Z,10.55
2022-11-26T07:51:58.854Z,9.77
2022-11-26T07:54:26.431Z,9.57
2022-11-26T07:56:54.007Z,10.98
2022-11-26T07:59:22.565Z,10.70
2022-11-26T08:01:50.238Z,9.80
2022-11-26T08:04:17.872Z,10.30
2022-11-26T08:06:45.430Z,9.48
2022-11-26T08:09:13.136Z,10.10
2022-11-26T08:11:40.670Z,10.35
2022-11-26T08:14:10.798Z,9.57
2022-11-26T08:16:38.983Z,9.95
2022-11-26T08:19:10.328Z,10.60
2022-11-26T08:21:39.506Z,9.23
2022-11-26T08:24:08.334Z,9.38
2022-11-26T08:26:42.448Z,9.35
2022-11-26T08:29:12.141Z,10.07
2022-11-26T08:31:45.526Z,8.52
2022-11-26T08:34:15.244Z,9.20
2022-11-26T08:36:43.387Z,8.77
2022-11-26T08:39:17.688Z,8.75
2022-11-26T08:41:51.585Z,8.68
2022-11-26T08:44:20.794Z,8.98
2022-11-26T08:46:48.635Z,8.40
2022-11-26T08:49:17.080Z,8.93
2022-11-26T08:51:45.483Z,8.63
2022-11-26T08:54:13.113Z,8.30
2022-11-26T08:56:40.656Z,7.97
2022-11-26T08:59:08.260Z,8.60
2022-11-26T09:01:36.188Z,9.02
2022-11-26T09:04:04.855Z,8.57
2022-11-26T09:06:33.822Z,8.38
2022-11-26T09:09:14.872Z,8.15
2022-11-26T09:11:54.186Z,7.90
2022-11-26T09:14:25.004Z,8.35
2022-11-26T09:16:54.250Z,7.90
2022-11-26T09:19:21.970Z,7.65
2022-11-26T09:21:49.590Z,8.10
2022-11-26T09:24:17.370Z,7.15
2022-11-26T09:26:45.118Z,7.47
2022-11-26T09:29:18.540Z,8.18
2022-11-26T09:32:15.403Z,9.88
2022-11-26T09:34:34.132Z,7.97
2022-11-26T09:37:02.055Z,7.82
2022-11-26T09:39:29.745Z,6.88
2022-11-26T09:42:05.656Z,7.40
2022-11-26T09:44:54.921Z,8.60
2022-11-26T09:47:28.196Z,7.72
2022-11-26T09:50:07.795Z,6.45
2022-11-26T09:52:42.543Z,6.97
2022-11-26T09:55:31.359Z,6.57
2022-11-26T09:58:12.809Z,6.72
2022-11-26T10:00:46.062Z,7.53
2022-11-26T10:03:42.941Z,6.70
2022-11-26T10:06:16.367Z,7.63
2022-11-26T10:08:56.930Z,7.47
2022-11-26T10:11:43.218Z,7.18
2022-11-26T10:14:28.793Z,6.53
2022-11-26T10:16:56.392Z,6.47
2022-11-26T10:19:45.124Z,7.97
2022-11-26T10:22:23.634Z,6.43
2022-11-26T10:24:51.982Z,6.72
2022-11-26T10:27:21.557Z,6.88
2022-11-26T10:30:17.736Z,6.75
2022-11-26T10:32:46.999Z,6.55
2022-11-26T10:35:20.268Z,6.28
2022-11-26T10:37:48.097Z,8.02
2022-11-26T10:40:32.154Z,7.30
2022-11-26T10:43:09.127Z,6.95
2022-11-26T10:45:48.559Z,6.55
2022-11-26T10:48:18.965Z,6.43
2022-11-26T10:51:09.280Z,6.13
2022-11-26T10:53:53.512Z,6.53
2022-11-26T10:56:29.602Z,7.80
2022-11-26T10:59:00.087Z,7.78
2022-11-26T11:01:35.883Z,8.20
2022-11-26T11:04:08.508Z,7.60
2022-11-26T11:06:43.156Z,6.30
2022-11-26T11:09:29.028Z,6.82
2022-11-26T11:12:23.469Z,7.55
2022-11-26T11:14:52.220Z,6.07
2022-11-26T11:17:37.053Z,6.72
2022-11-26T11:20:16.607Z,6.47
2022-11-26T11:22:46.981Z,6.53
2022-11-26T11:25:26.258Z,5.57
2022-11-26T11:27:54.575Z,5.80
2022-11-26T11:30:27.569Z,6.05
2022-11-26T11:33:09.327Z,5.90
2022-11-26T11:35:37.005Z,5.45
2022-11-26T11:38:04.552Z,5.72
2022-11-26T11:40:41.641Z,6.10
2022-11-26T11:43:15.864Z,5.60
2022-11-26T11:45:52.984Z,6.03
2022-11-26T11:48:30.699Z,6.97
2022-11-26T11:51:21.228Z,5.72
2022-11-26T11:54:18.247Z,6.65
2022-11-26T11:56:50.594Z,5.78
2022-11-26T11:59:47.789Z,6.95
2022-11-26T12:02:50.540Z,6.93
2022-11-26T12:05:32.668Z,6.05
2022-11-26T12:08:32.093Z,5.43
2022-11-26T12:11:23.518Z,6.00
2022-11-26T12:13:55.123Z,6.10
2022-11-26T12:16:25.691Z,5.95
2022-11-26T12:19:03.716Z,7.00
2022-11-26T12:21:51.771Z,7.53
2022-11-26T12:24:44.639Z,7.35
2022-11-26T12:27:27.334Z,7.50
2022-11-26T12:30:17.128Z,7.10
2022-11-26T12:33:07.955Z,6.35
2022-11-26T12:35:37.644Z,5.70
2022-11-26T12:38:11.550Z,6.40
2022-11-26T12:40:51.090Z,6.50
2022-11-26T12:43:22.897Z,5.47
2022-11-26T12:46:07.284Z,5.95
2022-11-26T12:48:43.770Z,4.88
2022-11-26T12:51:37.955Z,5.15
2022-11-26T12:54:24.654Z,6.30
2022-11-26T12:57:10.243Z,6.45
2022-11-26T13:00:00.646Z,6.32
2022-11-26T13:02:36.188Z,4.90
2022-11-26T13:05:04.194Z,3.88
2022-11-26T13:07:53.639Z,4.85
2022-11-26T13:10:35.813Z,6.20
2022-11-26T13:13:32.709Z,4.35
2022-11-26T13:16:26.545Z,4.70
2022-11-26T13:19:05.405Z,5.80
2022-11-26T13:21:44.205Z,5.60
2022-11-26T13:24:20.767Z,4.78
2022-11-26T13:27:17.277Z,5.40
2022-11-26T13:29:50.989Z,5.53
2022-11-26T13:32:56.227Z,4.82
2022-11-26T13:35:47.751Z,5.50
2022-11-26T13:38:34.305Z,5.38
2022-11-26T13:41:49.770Z,4.43
2022-11-26T13:44:35.098Z,5.38
2022-11-26T13:47:10.944Z,5.80
2022-11-26T13:49:44.674Z,4.40
2022-11-26T13:52:33.736Z,5.53
2022-11-26T13:55:06.743Z,5.25
2022-11-26T13:57:47.159Z,4.97
2022-11-26T14:00:25.204Z,5.10
2022-11-26T14:02:52.992Z,4.80
2022-11-26T14:05:20.750Z,3.63
2022-11-26T14:07:48.585Z,5.13
2022-11-26T14:10:34.712Z,4.40
2022-11-26T14:15:42.427Z,4.10
2022-11-26T14:18:14.643Z,4.93
2022-11-26T14:21:00.696Z,4.70
2022-11-26T14:26:19.516Z,5.63
2022-11-26T14:28:48.611Z,4.45
2022-11-26T14:31:25.667Z,4.78
2022-11-26T14:33:55.051Z,6.03
2022-11-26T14:36:28.087Z,4.60
2022-11-26T14:39:06.739Z,5.47
2022-11-26T14:41:43.477Z,5.90
2022-11-26T14:44:15.999Z,5.22
2022-11-26T14:46:46.351Z,4.85
2022-11-26T14:49:48.877Z,4.90
2022-11-26T14:52:20.623Z,5.22
2022-11-26T14:54:53.342Z,5.45
2022-11-26T14:57:25.251Z,5.72
2022-11-26T15:00:00.793Z,5.53
2022-11-26T15:02:30.098Z,5.57
2022-11-26T15:04:59.399Z,5.13
2022-11-26T15:07:28.403Z,5.53
2022-11-26T15:10:20.550Z,4.63
2022-11-26T15:12:50.212Z,5.50
2022-11-26T15:15:23.878Z,6.18
2022-11-26T15:17:55.227Z,5.00
2022-11-26T15:20:24.381Z,5.38
2022-11-26T15:22:54.375Z,4.50
2022-11-26T15:25:34.774Z,5.60
2022-11-26T15:28:04.824Z,5.10
2022-11-26T15:30:35.026Z,4.90
2022-11-26T15:33:08.323Z,4.65
2022-11-26T15:35:36.523Z,5.18
2022-11-26T15:38:22.543Z,5.15
2022-11-26T15:43:29.060Z,5.13
2022-11-26T15:46:00.230Z,3.85
2022-11-26T15:48:51.401Z,4.82
2022-11-26T15:51:36.108Z,5.18
2022-11-26T15:54:06.705Z,5.55
2022-11-26T15:56:39.200Z,5.88
2022-11-26T15:59:14.903Z,6.10
2022-11-26T16:01:45.406Z,5.80
2022-11-26T16:04:49.397Z,5.28
2022-11-26T16:07:25.578Z,5.32
2022-11-26T16:10:15.528Z,5.18
2022-11-26T16:12:45.080Z,4.18
2022-11-26T16:15:20.867Z,4.22
2022-11-26T16:17:49.692Z,5.47
2022-11-26T16:20:18.534Z,5.82
2022-11-26T16:22:48.428Z,6.18
2022-11-26T16:25:26.719Z,5.30
2022-11-26T16:28:17.664Z,6.03
2022-11-26T16:30:45.494Z,5.43
2022-11-26T16:33:13.341Z,5.80
2022-11-26T16:35:46.009Z,6.10
2022-11-26T16:38:22.578Z,5.68
2022-11-26T16:40:50.833Z,5.10
2022-11-26T16:43:18.709Z,5.18
2022-11-26T16:45:47.517Z,4.22
2022-11-26T16:48:24.256Z,5.35
2022-11-26T16:50:53.421Z,4.40
2022-11-26T16:53:21.093Z,5.45
2022-11-26T16:55:50.005Z,5.88
2022-11-26T16:58:27.283Z,5.60
2022-11-26T17:00:55.724Z,4.88
2022-11-26T17:03:24.665Z,4.47
2022-11-26T17:05:54.226Z,4.63
2022-11-26T17:08:22.101Z,4.93
2022-11-26T17:10:51.065Z,4.95
2022-11-26T17:13:20.510Z,5.38
2022-11-26T17:15:49.297Z,5.30
2022-11-26T17:18:24.681Z,6.55
2022-11-26T17:20:53.348Z,5.90
2022-11-26T17:23:21.255Z,5.40
2022-11-26T17:25:51.901Z,5.93
2022-11-26T17:28:21.073Z,4.47
2022-11-26T17:30:48.836Z,6.65
2022-11-26T17:33:16.468Z,5.40
2022-11-26T17:35:44.112Z,4.93
2022-11-26T17:38:20.149Z,5.32
2022-11-26T17:40:48.106Z,5.13
2022-11-26T17:43:16.933Z,5.68
2022-11-26T17:45:44.841Z,4.93
2022-11-26T17:48:14.145Z,4.47
2022-11-26T17:50:42.714Z,4.65
2022-11-26T17:53:10.340Z,4.57
2022-11-26T17:55:38.061Z,5.90
2022-11-26T17:58:05.634Z,6.03
2022-11-26T18:00:33.569Z,5.70
2022-11-26T18:03:01.263Z,6.20
2022-11-26T18:05:29.091Z,6.50
2022-11-26T18:07:56.826Z,6.28
2022-11-26T18:10:24.908Z,6.70
2022-11-26T18:12:55.467Z,7.90
2022-11-26T18:15:25.646Z,7.00
2022-11-26T18:17:55.044Z,6.35
2022-11-26T18:20:25.784Z,6.05
2022-11-26T18:22:59.482Z,6.82
2022-11-26T18:25:28.142Z,6.50
2022-11-26T18:27:55.787Z,7.38
2022-11-26T18:30:24.738Z,5.57
2022-11-26T18:32:52.413Z,5.75
2022-11-26T18:35:20.109Z,5.90
2022-11-26T18:37:47.723Z,5.70
2022-11-26T18:40:17.752Z,6.47
2022-11-26T18:42:45.603Z,5.82
2022-11-26T18:45:15.948Z,5.25
2022-11-26T18:47:43.645Z,5.43
2022-11-26T18:50:13.643Z,5.65
2022-11-26T18:52:41.264Z,6.30
2022-11-26T18:55:09.606Z,6.22
2022-11-26T18:57:37.428Z,6.25
2022-11-26T19:00:06.643Z,6.85
2022-11-26T19:02:37.746Z,4.25
2022-11-26T19:05:06.126Z,5.50
2022-11-26T19:07:34.141Z,7.07
2022-11-26T19:10:01.846Z,5.90
2022-11-26T19:12:29.776Z,5.88
2022-11-26T19:14:58.178Z,6.28
2022-11-26T19:17:26.185Z,5.38
2022-11-26T19:19:53.734Z,5.22
2022-11-26T19:22:21.273Z,6.55
2022-11-26T19:24:48.943Z,5.75
2022-11-26T19:27:16.567Z,5.85
2022-11-26T19:29:44.124Z,6.75
2022-11-26T19:32:11.726Z,6.22
2022-11-26T19:34:39.466Z,5.50
2022-11-26T19:37:07.063Z,5.65
2022-11-26T19:39:34.625Z,5.80
2022-11-26T19:42:02.208Z,5.28
2022-11-26T19:44:29.793Z,6.10
2022-11-26T19:46:57.392Z,6.07
2022-11-26T19:49:25.393Z,5.75
2022-11-26T19:51:54.570Z,5.47
2022-11-26T19:54:22.827Z,6.35
2022-11-26T19:56:50.399Z,5.65
2022-11-26T19:59:19.794Z,6.13
2022-11-26T20:01:47.737Z,4.70
2022-11-26T20:04:17.623Z,5.32
2022-11-26T20:06:45.207Z,5.70
2022-11-26T20:09:14.163Z,4.72
2022-11-26T20:11:42.199Z,5.60
2022-11-26T20:14:10.836Z,4.65
2022-11-26T20:16:40.967Z,3.83
2022-11-26T20:19:09.262Z,5.38
2022-11-26T20:21:37.357Z,5.57
2022-11-26T20:24:08.034Z,6.72
2022-11-26T20:26:38.601Z,6.60
2022-11-26T20:29:12.563Z,6.53
2022-11-26T20:31:46.751Z,6.45
2022-11-26T20:34:22.341Z,6.40
2022-11-26T20:36:50.160Z,4.80
2022-11-26T20:39:20.051Z,5.35
2022-11-26T20:41:48.338Z,5.80
2022-11-26T20:44:16.269Z,5.93
2022-11-26T20:46:43.964Z,5.05
2022-11-26T20:49:11.827Z,6.45
2022-11-26T20:51:39.597Z,5.93
2022-11-26T20:54:07.220Z,5.50
2022-11-26T20:56:34.828Z,4.68
2022-11-26T20:59:02.698Z,5.70
2022-11-26T21:01:31.598Z,4.78
2022-11-26T21:03:59.348Z,4.88
2022-11-26T21:06:30.370Z,5.35
2022-11-26T21:09:02.500Z,5.97
2022-11-26T21:11:31.406Z,5.40
2022-11-26T21:14:00.023Z,5.50
2022-11-26T21:16:28.623Z,5.55
2022-11-26T21:18:56.466Z,4.78
2022-11-26T21:21:25.520Z,4.93
2022-11-26T21:23:56.724Z,4.25
2022-11-26T21:26:26.031Z,4.90
2022-11-26T21:28:55.675Z,5.40
2022-11-26T21:31:24.035Z,6.22
2022-11-26T21:33:56.709Z,5.05
2022-11-26T21:36:24.611Z,3.97
2022-11-26T21:38:52.318Z,4.95
2022-11-26T21:41:20.756Z,5.03
2022-11-26T21:43:49.195Z,5.43
2022-11-26T21:46:19.903Z,5.43
2022-11-26T21:48:47.534Z,5.60
2022-11-26T21:51:17.454Z,5.82
2022-11-26T21:53:45.605Z,5.63
2022-11-26T21:56:24.984Z,5.57
2022-11-26T21:58:53.200Z,5.25
2022-11-26T22:01:39.056Z,5.53
2022-11-26T22:04:10.827Z,4.68
2022-11-26T22:06:38.921Z,4.93
2022-11-26T22:09:07.033Z,4.70
2022-11-26T22:11:37.364Z,4.45
2022-11-26T22:14:05.793Z,4.97
2022-11-26T22:16:33.812Z,5.68
2022-11-26T22:19:02.179Z,5.38
2022-11-26T22:21:38.478Z,5.28
2022-11-26T22:26:34.098Z,4.93
2022-11-26T22:29:01.842Z,5.53
2022-11-26T22:31:31.941Z,5.05
2022-11-26T22:34:24.619Z,5.70
2022-11-26T22:36:52.225Z,5.35
2022-11-26T22:39:20.260Z,5.25
2022-11-26T22:41:48.805Z,6.00
2022-11-26T22:44:17.372Z,5.90
2022-11-26T22:46:45.610Z,4.90
2022-11-26T22:49:16.007Z,5.72
2022-11-26T22:51:43.598Z,5.15
2022-11-26T22:54:13.457Z,5.10
2022-11-26T22:56:41.105Z,5.40
2022-11-26T22:59:10.922Z,5.32
2022-11-26T23:01:38.518Z,5.00
2022-11-26T23:04:08.210Z,5.90
2022-11-26T23:06:36.328Z,4.78
2022-11-26T23:09:05.872Z,5.05
2022-11-26T23:11:36.236Z,4.63
2022-11-26T23:14:07.251Z,5.20
2022-11-26T23:16:36.110Z,5.28
2022-11-26T23:19:04.454Z,5.45
2022-11-26T23:21:35.026Z,5.25
2022-11-26T23:24:02.703Z,5.30
2022-11-26T23:26:32.793Z,5.13
2022-11-26T23:29:01.803Z,5.47
2022-11-26T23:31:32.420Z,5.00
2022-11-26T23:34:00.311Z,5.47
2022-11-26T23:36:28.956Z,5.50
2022-11-26T23:38:56.886Z,5.25
2022-11-26T23:41:24.499Z,6.20
2022-11-26T23:43:52.255Z,5.35
2022-11-26T23:46:25.156Z,5.88
2022-11-26T23:48:52.990Z,4.97
2022-11-26T23:51:38.747Z,5.93
2022-11-26T23:54:06.355Z,6.18
2022-11-26T23:56:34.927Z,6.03
2022-11-26T23:59:03.931Z,5.40
